sensor_id;sensor_type;location;lat;lon;timestamp;pressure;altitude;pressure_sealevel;temperature;humidity
69173;BME280;56280;49.662;8.408;2023-05-10T00:01:15;100036.41;;;14.88;95.33
69173;BME280;56280;49.662;8.408;2023-05-10T00:03:40;100037.72;;;14.76;95.28
69173;BME280;56280;49.662;8.408;2023-05-10T00:06:06;100029.06;;;14.90;94.86
69173;BME280;56280;49.662;8.408;2023-05-10T00:08:31;100019.28;;;14.65;94.58
69173;BME280;56280;49.662;8.408;2023-05-10T00:10:56;100009.34;;;14.83;94.95
69173;BME280;56280;49.662;8.408;2023-05-10T00:13:22;100000.78;;;14.37;95.24
69173;BME280;56280;49.662;8.408;2023-05-10T00:15:47;100030.38;;;14.78;95.50
69173;BME280;56280;49.662;8.408;2023-05-10T00:18:12;100011.81;;;14.76;94.86
69173;BME280;56280;49.662;8.408;2023-05-10T00:20:37;100035.34;;;14.65;94.93
69173;BME280;56280;49.662;8.408;2023-05-10T00:23:03;100023.66;;;14.74;95.31
69173;BME280;56280;49.662;8.408;2023-05-10T00:25:28;100029.56;;;14.94;94.86
69173;BME280;56280;49.662;8.408;2023-05-10T00:27:53;100032.91;;;14.80;94.17
69173;BME280;56280;49.662;8.408;2023-05-10T00:30:20;100020.69;;;14.85;94.77
69173;BME280;56280;49.662;8.408;2023-05-10T00:32:46;100045.81;;;14.58;95.41
69173;BME280;56280;49.662;8.408;2023-05-10T00:35:13;100027.56;;;14.53;96.57
69173;BME280;56280;49.662;8.408;2023-05-10T00:37:38;100030.88;;;14.47;96.53
69173;BME280;56280;49.662;8.408;2023-05-10T00:40:04;100030.94;;;14.55;96.36
69173;BME280;56280;49.662;8.408;2023-05-10T00:42:30;100034.84;;;14.69;96.11
69173;BME280;56280;49.662;8.408;2023-05-10T00:44:55;99999.59;;;14.66;95.65
69173;BME280;56280;49.662;8.408;2023-05-10T00:47:21;100019.13;;;14.66;94.70
69173;BME280;56280;49.662;8.408;2023-05-10T00:49:47;100023.38;;;14.93;94.80
69173;BME280;56280;49.662;8.408;2023-05-10T00:52:12;100029.44;;;15.04;94.01
69173;BME280;56280;49.662;8.408;2023-05-10T00:54:38;100005.31;;;14.95;93.21
69173;BME280;56280;49.662;8.408;2023-05-10T00:57:03;99986.72;;;14.69;92.85
69173;BME280;56280;49.662;8.408;2023-05-10T00:59:29;100024.50;;;14.74;94.07
69173;BME280;56280;49.662;8.408;2023-05-10T01:01:55;100016.00;;;14.87;94.54
69173;BME280;56280;49.662;8.408;2023-05-10T01:04:20;100007.16;;;14.87;93.09
69173;BME280;56280;49.662;8.408;2023-05-10T01:06:52;99998.94;;;14.72;93.47
69173;BME280;56280;49.662;8.408;2023-05-10T01:09:19;100023.72;;;14.90;93.69
69173;BME280;56280;49.662;8.408;2023-05-10T01:11:45;100024.00;;;14.79;93.43
69173;BME280;56280;49.662;8.408;2023-05-10T01:14:11;100020.16;;;14.65;93.59
69173;BME280;56280;49.662;8.408;2023-05-10T01:16:38;100027.00;;;14.76;94.02
69173;BME280;56280;49.662;8.408;2023-05-10T01:19:05;100048.72;;;14.73;94.00
69173;BME280;56280;49.662;8.408;2023-05-10T01:21:43;100045.25;;;14.81;94.32
69173;BME280;56280;49.662;8.408;2023-05-10T01:35:06;100038.25;;;14.53;93.91
69173;BME280;56280;49.662;8.408;2023-05-10T01:37:42;100053.41;;;14.71;93.88
69173;BME280;56280;49.662;8.408;2023-05-10T01:43:02;100039.78;;;14.56;93.73
69173;BME280;56280;49.662;8.408;2023-05-10T01:45:36;100059.22;;;14.66;93.82
69173;BME280;56280;49.662;8.408;2023-05-10T01:48:06;100051.53;;;14.29;94.24
69173;BME280;56280;49.662;8.408;2023-05-10T01:50:34;100066.75;;;14.63;94.32
69173;BME280;56280;49.662;8.408;2023-05-10T01:53:01;100069.94;;;14.66;93.70
69173;BME280;56280;49.662;8.408;2023-05-10T01:55:30;100052.34;;;14.55;93.21
69173;BME280;56280;49.662;8.408;2023-05-10T01:58:17;100053.44;;;14.79;93.11
69173;BME280;56280;49.662;8.408;2023-05-10T02:00:45;100068.31;;;14.82;93.01
69173;BME280;56280;49.662;8.408;2023-05-10T02:03:12;100070.50;;;14.86;92.67
69173;BME280;56280;49.662;8.408;2023-05-10T02:05:39;100055.44;;;14.77;93.06
69173;BME280;56280;49.662;8.408;2023-05-10T02:08:07;100069.16;;;14.90;92.95
69173;BME280;56280;49.662;8.408;2023-05-10T02:10:37;100069.88;;;14.92;92.77
69173;BME280;56280;49.662;8.408;2023-05-10T02:13:05;100060.81;;;14.85;91.92
69173;BME280;56280;49.662;8.408;2023-05-10T02:15:32;100061.91;;;14.66;92.51
69173;BME280;56280;49.662;8.408;2023-05-10T02:17:59;100068.16;;;14.83;93.15
69173;BME280;56280;49.662;8.408;2023-05-10T02:20:26;100036.06;;;14.75;92.07
69173;BME280;56280;49.662;8.408;2023-05-10T02:22:54;100048.88;;;14.71;92.13
69173;BME280;56280;49.662;8.408;2023-05-10T02:25:21;100056.94;;;14.45;92.59
69173;BME280;56280;49.662;8.408;2023-05-10T02:27:48;100088.16;;;14.71;93.74
69173;BME280;56280;49.662;8.408;2023-05-10T02:30:14;100083.13;;;14.68;93.05
69173;BME280;56280;49.662;8.408;2023-05-10T02:32:41;100067.66;;;14.80;92.17
69173;BME280;56280;49.662;8.408;2023-05-10T02:35:08;100048.94;;;14.80;91.93
69173;BME280;56280;49.662;8.408;2023-05-10T02:37:35;100065.34;;;14.93;91.91
69173;BME280;56280;49.662;8.408;2023-05-10T02:40:02;100064.53;;;14.92;91.57
69173;BME280;56280;49.662;8.408;2023-05-10T02:42:32;100056.75;;;14.73;91.42
69173;BME280;56280;49.662;8.408;2023-05-10T02:45:00;100052.41;;;14.64;91.31
69173;BME280;56280;49.662;8.408;2023-05-10T02:47:27;100051.47;;;14.55;91.43
69173;BME280;56280;49.662;8.408;2023-05-10T02:49:53;100069.44;;;14.71;91.80
69173;BME280;56280;49.662;8.408;2023-05-10T02:52:25;100075.13;;;14.68;91.51
69173;BME280;56280;49.662;8.408;2023-05-10T02:54:55;100059.78;;;14.44;91.81
69173;BME280;56280;49.662;8.408;2023-05-10T02:57:26;100081.84;;;14.80;92.36
69173;BME280;56280;49.662;8.408;2023-05-10T02:59:51;100067.44;;;14.73;91.41
69173;BME280;56280;49.662;8.408;2023-05-10T03:02:17;100079.53;;;14.85;91.76
69173;BME280;56280;49.662;8.408;2023-05-10T03:04:42;100068.84;;;14.85;90.87
69173;BME280;56280;49.662;8.408;2023-05-10T03:07:07;100077.53;;;14.87;90.80
69173;BME280;56280;49.662;8.408;2023-05-10T03:09:33;100062.59;;;14.68;90.65
69173;BME280;56280;49.662;8.408;2023-05-10T03:12:26;100082.03;;;14.87;91.29
69173;BME280;56280;49.662;8.408;2023-05-10T03:15:04;100078.38;;;14.88;90.43
69173;BME280;56280;49.662;8.408;2023-05-10T03:17:52;100066.47;;;14.74;90.14
69173;BME280;56280;49.662;8.408;2023-05-10T03:20:24;100088.06;;;14.54;91.10
69173;BME280;56280;49.662;8.408;2023-05-10T03:22:55;100082.72;;;14.54;91.14
69173;BME280;56280;49.662;8.408;2023-05-10T03:25:21;100081.34;;;14.50;91.43
69173;BME280;56280;49.662;8.408;2023-05-10T03:27:48;100077.16;;;14.74;90.89
69173;BME280;56280;49.662;8.408;2023-05-10T03:30:13;100083.63;;;14.71;90.53
69173;BME280;56280;49.662;8.408;2023-05-10T03:32:39;100094.59;;;14.94;90.81
69173;BME280;56280;49.662;8.408;2023-05-10T03:35:11;100080.03;;;14.89;89.85
69173;BME280;56280;49.662;8.408;2023-05-10T03:37:38;100099.94;;;14.86;89.93
69173;BME280;56280;49.662;8.408;2023-05-10T03:40:04;100094.91;;;14.83;90.72
69173;BME280;56280;49.662;8.408;2023-05-10T03:42:29;100098.53;;;14.74;90.03
69173;BME280;56280;49.662;8.408;2023-05-10T03:44:55;100098.19;;;14.69;90.64
69173;BME280;56280;49.662;8.408;2023-05-10T03:47:20;100092.72;;;14.79;90.56
69173;BME280;56280;49.662;8.408;2023-05-10T03:49:45;100085.19;;;14.82;90.16
69173;BME280;56280;49.662;8.408;2023-05-10T03:52:10;100086.91;;;14.91;90.45
69173;BME280;56280;49.662;8.408;2023-05-10T03:54:36;100081.06;;;14.96;89.44
69173;BME280;56280;49.662;8.408;2023-05-10T03:57:01;100086.63;;;15.11;89.51
69173;BME280;56280;49.662;8.408;2023-05-10T03:59:28;100098.44;;;14.92;88.67
69173;BME280;56280;49.662;8.408;2023-05-10T04:01:53;100093.97;;;15.01;89.64
69173;BME280;56280;49.662;8.408;2023-05-10T04:04:18;100096.25;;;14.87;88.50
69173;BME280;56280;49.662;8.408;2023-05-10T04:06:45;100088.97;;;14.63;87.66
69173;BME280;56280;49.662;8.408;2023-05-10T04:09:11;100084.31;;;14.65;87.64
69173;BME280;56280;49.662;8.408;2023-05-10T04:11:36;100107.06;;;14.77;87.72
69173;BME280;56280;49.662;8.408;2023-05-10T04:14:01;100102.19;;;14.73;87.48
69173;BME280;56280;49.662;8.408;2023-05-10T04:16:27;100084.06;;;14.58;87.13
69173;BME280;56280;49.662;8.408;2023-05-10T04:18:52;100088.25;;;14.27;87.57
69173;BME280;56280;49.662;8.408;2023-05-10T04:21:17;100093.19;;;14.39;88.37
69173;BME280;56280;49.662;8.408;2023-05-10T04:23:43;100098.09;;;14.52;87.93
69173;BME280;56280;49.662;8.408;2023-05-10T04:26:08;100103.44;;;14.52;87.93
69173;BME280;56280;49.662;8.408;2023-05-10T04:28:33;100106.53;;;14.39;86.87
69173;BME280;56280;49.662;8.408;2023-05-10T04:31:02;100124.81;;;14.52;87.35
69173;BME280;56280;49.662;8.408;2023-05-10T04:33:28;100115.69;;;14.37;87.19
69173;BME280;56280;49.662;8.408;2023-05-10T04:35:53;100099.00;;;14.35;87.48
69173;BME280;56280;49.662;8.408;2023-05-10T04:38:18;100112.03;;;14.38;87.01
69173;BME280;56280;49.662;8.408;2023-05-10T04:40:44;100105.69;;;14.39;87.57
69173;BME280;56280;49.662;8.408;2023-05-10T04:43:09;100112.81;;;14.30;87.38
69173;BME280;56280;49.662;8.408;2023-05-10T04:45:34;100125.09;;;14.41;88.00
69173;BME280;56280;49.662;8.408;2023-05-10T04:47:59;100115.28;;;14.23;88.06
69173;BME280;56280;49.662;8.408;2023-05-10T04:50:25;100129.06;;;14.37;88.15
69173;BME280;56280;49.662;8.408;2023-05-10T04:52:50;100129.66;;;14.57;88.18
69173;BME280;56280;49.662;8.408;2023-05-10T04:55:15;100146.66;;;14.74;87.16
69173;BME280;56280;49.662;8.408;2023-05-10T04:57:41;100144.47;;;14.69;86.89
69173;BME280;56280;49.662;8.408;2023-05-10T05:00:06;100149.47;;;14.38;86.38
69173;BME280;56280;49.662;8.408;2023-05-10T05:02:32;100147.78;;;14.37;87.98
69173;BME280;56280;49.662;8.408;2023-05-10T05:04:57;100149.78;;;14.61;87.49
69173;BME280;56280;49.662;8.408;2023-05-10T05:07:22;100147.09;;;14.61;87.23
69173;BME280;56280;49.662;8.408;2023-05-10T05:09:48;100144.44;;;14.61;86.74
69173;BME280;56280;49.662;8.408;2023-05-10T05:12:13;100148.88;;;14.79;86.56
69173;BME280;56280;49.662;8.408;2023-05-10T05:14:39;100154.72;;;14.82;87.00
69173;BME280;56280;49.662;8.408;2023-05-10T05:17:05;100159.78;;;14.93;86.86
69173;BME280;56280;49.662;8.408;2023-05-10T05:19:31;100153.63;;;15.01;86.75
69173;BME280;56280;49.662;8.408;2023-05-10T05:21:56;100152.50;;;15.04;86.68
69173;BME280;56280;49.662;8.408;2023-05-10T05:24:22;100160.88;;;15.09;86.96
69173;BME280;56280;49.662;8.408;2023-05-10T05:26:47;100171.41;;;15.10;86.86
69173;BME280;56280;49.662;8.408;2023-05-10T05:29:13;100172.41;;;15.18;87.06
69173;BME280;56280;49.662;8.408;2023-05-10T05:31:38;100158.22;;;15.17;86.63
69173;BME280;56280;49.662;8.408;2023-05-10T05:34:03;100155.88;;;15.22;85.82
69173;BME280;56280;49.662;8.408;2023-05-10T05:36:28;100161.91;;;15.24;86.32
69173;BME280;56280;49.662;8.408;2023-05-10T05:38:54;100171.97;;;15.39;86.44
69173;BME280;56280;49.662;8.408;2023-05-10T05:41:19;100146.91;;;15.40;86.58
69173;BME280;56280;49.662;8.408;2023-05-10T05:43:46;100150.06;;;15.35;86.44
69173;BME280;56280;49.662;8.408;2023-05-10T05:46:11;100167.34;;;15.49;86.70
69173;BME280;56280;49.662;8.408;2023-05-10T05:48:37;100179.69;;;15.42;86.29
69173;BME280;56280;49.662;8.408;2023-05-10T05:51:02;100160.78;;;15.35;86.07
69173;BME280;56280;49.662;8.408;2023-05-10T05:53:27;100164.97;;;15.38;85.03
69173;BME280;56280;49.662;8.408;2023-05-10T05:55:57;100160.97;;;15.58;85.08
69173;BME280;56280;49.662;8.408;2023-05-10T05:58:23;100165.06;;;15.79;85.18
69173;BME280;56280;49.662;8.408;2023-05-10T06:00:49;100177.63;;;15.78;84.15
69173;BME280;56280;49.662;8.408;2023-05-10T06:03:15;100159.38;;;15.90;84.95
69173;BME280;56280;49.662;8.408;2023-05-10T06:05:40;100182.16;;;16.11;83.34
69173;BME280;56280;49.662;8.408;2023-05-10T06:08:06;100180.97;;;16.13;83.22
69173;BME280;56280;49.662;8.408;2023-05-10T06:10:31;100183.31;;;16.25;83.26
69173;BME280;56280;49.662;8.408;2023-05-10T06:12:56;100179.78;;;16.16;81.63
69173;BME280;56280;49.662;8.408;2023-05-10T06:15:22;100182.63;;;16.22;82.15
69173;BME280;56280;49.662;8.408;2023-05-10T06:17:47;100179.78;;;16.32;82.20
69173;BME280;56280;49.662;8.408;2023-05-10T06:20:14;100190.31;;;16.42;81.18
69173;BME280;56280;49.662;8.408;2023-05-10T06:22:40;100187.81;;;16.49;80.47
69173;BME280;56280;49.662;8.408;2023-05-10T06:25:05;100191.44;;;16.72;80.34
69173;BME280;56280;49.662;8.408;2023-05-10T06:27:31;100180.56;;;16.66;79.62
69173;BME280;56280;49.662;8.408;2023-05-10T06:29:56;100183.25;;;16.57;80.28
69173;BME280;56280;49.662;8.408;2023-05-10T06:32:21;100197.47;;;16.74;80.78
69173;BME280;56280;49.662;8.408;2023-05-10T06:34:47;100169.38;;;16.54;80.01
69173;BME280;56280;49.662;8.408;2023-05-10T06:37:12;100189.09;;;16.86;78.92
69173;BME280;56280;49.662;8.408;2023-05-10T06:39:37;100197.78;;;16.96;79.12
69173;BME280;56280;49.662;8.408;2023-05-10T06:42:03;100200.28;;;16.98;78.89
69173;BME280;56280;49.662;8.408;2023-05-10T06:44:29;100191.75;;;16.94;79.06
69173;BME280;56280;49.662;8.408;2023-05-10T06:46:54;100205.78;;;17.04;78.59
69173;BME280;56280;49.662;8.408;2023-05-10T06:49:21;100205.94;;;17.11;78.09
69173;BME280;56280;49.662;8.408;2023-05-10T06:51:46;100205.28;;;17.09;77.88
69173;BME280;56280;49.662;8.408;2023-05-10T06:54:11;100205.94;;;17.11;75.95
69173;BME280;56280;49.662;8.408;2023-05-10T06:56:36;100192.47;;;16.71;76.00
69173;BME280;56280;49.662;8.408;2023-05-10T06:59:02;100188.97;;;16.54;77.74
69173;BME280;56280;49.662;8.408;2023-05-10T07:01:28;100194.59;;;16.84;78.26
69173;BME280;56280;49.662;8.408;2023-05-10T07:03:53;100208.19;;;16.66;78.36
69173;BME280;56280;49.662;8.408;2023-05-10T07:06:18;100199.66;;;16.63;79.09
69173;BME280;56280;49.662;8.408;2023-05-10T07:08:43;100195.34;;;16.37;77.84
69173;BME280;56280;49.662;8.408;2023-05-10T07:11:09;100187.81;;;16.49;79.55
69173;BME280;56280;49.662;8.408;2023-05-10T07:13:35;100210.72;;;16.76;78.40
69173;BME280;56280;49.662;8.408;2023-05-10T07:16:01;100192.44;;;16.80;77.24
69173;BME280;56280;49.662;8.408;2023-05-10T07:18:27;100198.00;;;17.26;77.46
69173;BME280;56280;49.662;8.408;2023-05-10T07:20:53;100219.88;;;17.06;75.65
69173;BME280;56280;49.662;8.408;2023-05-10T07:23:18;100213.94;;;17.19;75.44
69173;BME280;56280;49.662;8.408;2023-05-10T07:25:48;100229.94;;;17.04;75.58
69173;BME280;56280;49.662;8.408;2023-05-10T07:28:14;100230.88;;;17.28;76.57
69173;BME280;56280;49.662;8.408;2023-05-10T07:30:40;100225.38;;;17.21;75.19
69173;BME280;56280;49.662;8.408;2023-05-10T07:33:06;100227.66;;;17.33;74.80
69173;BME280;56280;49.662;8.408;2023-05-10T07:35:33;100238.53;;;17.39;73.77
69173;BME280;56280;49.662;8.408;2023-05-10T07:37:58;100230.31;;;17.41;74.49
69173;BME280;56280;49.662;8.408;2023-05-10T07:40:23;100229.78;;;17.45;74.42
69173;BME280;56280;49.662;8.408;2023-05-10T07:42:49;100221.56;;;17.47;74.08
69173;BME280;56280;49.662;8.408;2023-05-10T07:45:14;100231.03;;;17.58;72.80
69173;BME280;56280;49.662;8.408;2023-05-10T07:47:40;100227.56;;;17.49;74.12
69173;BME280;56280;49.662;8.408;2023-05-10T07:50:06;100235.97;;;17.77;74.02
69173;BME280;56280;49.662;8.408;2023-05-10T07:52:31;100235.38;;;17.98;72.88
69173;BME280;56280;49.662;8.408;2023-05-10T07:54:57;100224.88;;;17.80;72.46
69173;BME280;56280;49.662;8.408;2023-05-10T07:57:22;100226.00;;;17.63;72.64
69173;BME280;56280;49.662;8.408;2023-05-10T07:59:47;100214.47;;;17.77;71.58
69173;BME280;56280;49.662;8.408;2023-05-10T08:02:13;100225.13;;;17.39;71.46
69173;BME280;56280;49.662;8.408;2023-05-10T08:04:38;100226.06;;;17.46;72.21
69173;BME280;56280;49.662;8.408;2023-05-10T08:07:03;100219.13;;;17.83;72.23
69173;BME280;56280;49.662;8.408;2023-05-10T08:09:28;100219.13;;;17.83;71.71
69173;BME280;56280;49.662;8.408;2023-05-10T08:11:54;100225.31;;;18.15;72.57
69173;BME280;56280;49.662;8.408;2023-05-10T08:14:19;100221.44;;;18.56;70.78
69173;BME280;56280;49.662;8.408;2023-05-10T08:16:44;100222.81;;;18.52;70.03
69173;BME280;56280;49.662;8.408;2023-05-10T08:19:10;100215.13;;;18.78;70.06
69173;BME280;56280;49.662;8.408;2023-05-10T08:21:35;100226.88;;;19.16;68.12
69173;BME280;56280;49.662;8.408;2023-05-10T08:24:01;100236.06;;;19.21;68.37
69173;BME280;56280;49.662;8.408;2023-05-10T08:26:26;100229.88;;;19.57;66.47
69173;BME280;56280;49.662;8.408;2023-05-10T08:28:52;100220.66;;;19.66;63.89
69173;BME280;56280;49.662;8.408;2023-05-10T08:31:17;100232.50;;;19.72;62.51
69173;BME280;56280;49.662;8.408;2023-05-10T08:33:43;100243.94;;;19.89;63.21
69173;BME280;56280;49.662;8.408;2023-05-10T08:36:08;100251.56;;;19.85;60.91
69173;BME280;56280;49.662;8.408;2023-05-10T08:38:33;100228.53;;;19.83;61.48
69173;BME280;56280;49.662;8.408;2023-05-10T08:40:59;100233.59;;;19.93;62.04
69173;BME280;56280;49.662;8.408;2023-05-10T08:43:27;100233.53;;;20.57;63.49
69173;BME280;56280;49.662;8.408;2023-05-10T08:45:54;100251.72;;;20.70;60.02
69173;BME280;56280;49.662;8.408;2023-05-10T08:48:23;100255.97;;;20.58;60.65
69173;BME280;56280;49.662;8.408;2023-05-10T08:50:50;100260.59;;;20.14;60.04
69173;BME280;56280;49.662;8.408;2023-05-10T08:53:18;100258.31;;;19.96;59.50
69173;BME280;56280;49.662;8.408;2023-05-10T08:55:44;100237.19;;;19.78;58.41
69173;BME280;56280;49.662;8.408;2023-05-10T08:58:09;100254.59;;;19.76;59.79
69173;BME280;56280;49.662;8.408;2023-05-10T09:00:35;100262.75;;;19.53;59.59
69173;BME280;56280;49.662;8.408;2023-05-10T09:03:03;100268.25;;;19.44;60.41
69173;BME280;56280;49.662;8.408;2023-05-10T09:05:28;100265.34;;;19.61;60.83
69173;BME280;56280;49.662;8.408;2023-05-10T09:07:54;100261.66;;;19.98;59.36
69173;BME280;56280;49.662;8.408;2023-05-10T09:10:20;100259.88;;;20.27;57.96
69173;BME280;56280;49.662;8.408;2023-05-10T09:12:46;100262.81;;;20.11;56.58
69173;BME280;56280;49.662;8.408;2023-05-10T09:15:15;100266.34;;;20.11;55.56
69173;BME280;56280;49.662;8.408;2023-05-10T09:17:40;100285.03;;;20.13;55.85
69173;BME280;56280;49.662;8.408;2023-05-10T09:20:06;100266.50;;;20.03;56.30
69173;BME280;56280;49.662;8.408;2023-05-10T09:22:32;100278.75;;;20.27;56.78
69173;BME280;56280;49.662;8.408;2023-05-10T09:25:24;100284.66;;;20.37;57.22
69173;BME280;56280;49.662;8.408;2023-05-10T09:27:49;100278.16;;;20.53;56.62
69173;BME280;56280;49.662;8.408;2023-05-10T09:30:24;100280.81;;;21.03;55.93
69173;BME280;56280;49.662;8.408;2023-05-10T09:32:50;100283.44;;;20.90;55.59
69173;BME280;56280;49.662;8.408;2023-05-10T09:35:17;100290.03;;;20.37;54.90
69173;BME280;56280;49.662;8.408;2023-05-10T09:37:45;100297.50;;;20.35;55.09
69173;BME280;56280;49.662;8.408;2023-05-10T09:40:12;100283.44;;;20.40;54.59
69173;BME280;56280;49.662;8.408;2023-05-10T09:42:38;100289.00;;;20.60;55.02
69173;BME280;56280;49.662;8.408;2023-05-10T09:45:04;100286.19;;;20.97;56.49
69173;BME280;56280;49.662;8.408;2023-05-10T09:47:36;100285.25;;;20.83;53.95
69173;BME280;56280;49.662;8.408;2023-05-10T09:50:03;100287.00;;;20.97;53.48
69173;BME280;56280;49.662;8.408;2023-05-10T09:52:50;100291.63;;;21.38;54.39
69173;BME280;56280;49.662;8.408;2023-05-10T09:55:18;100288.25;;;21.71;53.07
69173;BME280;56280;49.662;8.408;2023-05-10T09:57:43;100280.09;;;21.51;53.92
69173;BME280;56280;49.662;8.408;2023-05-10T10:00:09;100289.72;;;20.97;55.62
69173;BME280;56280;49.662;8.408;2023-05-10T10:02:38;100296.75;;;20.91;54.65
69173;BME280;56280;49.662;8.408;2023-05-10T10:05:06;100275.09;;;20.85;53.69
69173;BME280;56280;49.662;8.408;2023-05-10T10:07:32;100294.22;;;21.18;54.56
69173;BME280;56280;49.662;8.408;2023-05-10T10:09:58;100292.88;;;21.07;53.82
69173;BME280;56280;49.662;8.408;2023-05-10T10:12:24;100302.66;;;21.08;53.99
69173;BME280;56280;49.662;8.408;2023-05-10T10:14:50;100305.53;;;21.00;53.33
69173;BME280;56280;49.662;8.408;2023-05-10T10:17:17;100300.69;;;21.24;52.62
69173;BME280;56280;49.662;8.408;2023-05-10T10:19:42;100286.41;;;20.73;52.04
69173;BME280;56280;49.662;8.408;2023-05-10T10:22:07;100300.59;;;21.10;53.53
69173;BME280;56280;49.662;8.408;2023-05-10T10:24:33;100301.19;;;21.41;50.96
69173;BME280;56280;49.662;8.408;2023-05-10T10:27:21;100287.66;;;21.34;51.43
69173;BME280;56280;49.662;8.408;2023-05-10T10:30:01;100282.88;;;21.36;51.16
69173;BME280;56280;49.662;8.408;2023-05-10T10:35:21;100296.69;;;20.85;52.05
69173;BME280;56280;49.662;8.408;2023-05-10T10:37:48;100300.19;;;21.13;51.87
69173;BME280;56280;49.662;8.408;2023-05-10T10:40:32;100284.56;;;21.44;49.51
69173;BME280;56280;49.662;8.408;2023-05-10T10:43:27;100297.47;;;21.42;49.96
69173;BME280;56280;49.662;8.408;2023-05-10T10:48:51;100295.16;;;21.39;47.54
69173;BME280;56280;49.662;8.408;2023-05-10T10:51:37;100288.31;;;21.43;47.59
69173;BME280;56280;49.662;8.408;2023-05-10T10:54:09;100307.88;;;21.45;49.10
69173;BME280;56280;49.662;8.408;2023-05-10T10:56:35;100275.69;;;21.50;48.73
69173;BME280;56280;49.662;8.408;2023-05-10T10:59:00;100292.88;;;21.91;48.01
69173;BME280;56280;49.662;8.408;2023-05-10T11:01:32;100287.25;;;21.85;46.34
69173;BME280;56280;49.662;8.408;2023-05-10T11:06:33;100304.63;;;21.56;47.13
69173;BME280;56280;49.662;8.408;2023-05-10T11:09:05;100303.84;;;21.62;48.01
69173;BME280;56280;49.662;8.408;2023-05-10T11:11:31;100288.41;;;21.56;49.12
69173;BME280;56280;49.662;8.408;2023-05-10T11:14:03;100302.69;;;21.92;47.49
69173;BME280;56280;49.662;8.408;2023-05-10T11:16:40;100299.59;;;22.01;46.30
69173;BME280;56280;49.662;8.408;2023-05-10T11:19:11;100307.09;;;22.06;44.90
69173;BME280;56280;49.662;8.408;2023-05-10T11:24:29;100312.78;;;22.31;46.26
69173;BME280;56280;49.662;8.408;2023-05-10T11:26:56;100307.41;;;22.51;45.93
69173;BME280;56280;49.662;8.408;2023-05-10T11:29:21;100300.50;;;22.55;46.49
69173;BME280;56280;49.662;8.408;2023-05-10T11:31:48;100305.31;;;22.53;46.84
69173;BME280;56280;49.662;8.408;2023-05-10T11:34:28;100297.31;;;22.18;47.20
69173;BME280;56280;49.662;8.408;2023-05-10T11:36:56;100295.63;;;22.04;46.66
69173;BME280;56280;49.662;8.408;2023-05-10T11:39:28;100315.25;;;22.26;48.18
69173;BME280;56280;49.662;8.408;2023-05-10T11:41:54;100306.63;;;21.89;48.33
69173;BME280;56280;49.662;8.408;2023-05-10T11:44:19;100290.47;;;22.22;48.54
69173;BME280;56280;49.662;8.408;2023-05-10T11:46:45;100283.84;;;22.65;45.88
69173;BME280;56280;49.662;8.408;2023-05-10T11:49:10;100293.66;;;22.66;47.27
69173;BME280;56280;49.662;8.408;2023-05-10T11:51:36;100305.28;;;22.93;46.75
69173;BME280;56280;49.662;8.408;2023-05-10T11:54:06;100311.53;;;23.21;44.53
69173;BME280;56280;49.662;8.408;2023-05-10T11:56:32;100317.81;;;22.94;45.41
69173;BME280;56280;49.662;8.408;2023-05-10T11:58:57;100317.41;;;22.57;46.10
69173;BME280;56280;49.662;8.408;2023-05-10T12:01:24;100318.03;;;22.53;46.90
69173;BME280;56280;49.662;8.408;2023-05-10T12:03:51;100320.22;;;22.16;46.53
69173;BME280;56280;49.662;8.408;2023-05-10T12:06:18;100320.22;;;22.22;46.54
69173;BME280;56280;49.662;8.408;2023-05-10T12:08:46;100313.34;;;22.20;46.97
69173;BME280;56280;49.662;8.408;2023-05-10T12:11:12;100318.91;;;21.98;48.49
69173;BME280;56280;49.662;8.408;2023-05-10T12:13:38;100323.41;;;22.33;46.83
69173;BME280;56280;49.662;8.408;2023-05-10T12:16:29;100328.81;;;21.71;48.37
69173;BME280;56280;49.662;8.408;2023-05-10T12:18:57;100323.84;;;21.81;48.80
69173;BME280;56280;49.662;8.408;2023-05-10T12:21:23;100317.25;;;21.97;46.81
69173;BME280;56280;49.662;8.408;2023-05-10T12:23:51;100314.50;;;21.77;47.71
69173;BME280;56280;49.662;8.408;2023-05-10T12:26:17;100316.59;;;21.82;47.98
69173;BME280;56280;49.662;8.408;2023-05-10T12:28:42;100313.91;;;21.89;48.89
69173;BME280;56280;49.662;8.408;2023-05-10T12:31:08;100319.41;;;22.22;47.32
69173;BME280;56280;49.662;8.408;2023-05-10T12:33:38;100316.81;;;21.94;47.61
69173;BME280;56280;49.662;8.408;2023-05-10T12:36:05;100335.69;;;21.74;45.47
69173;BME280;56280;49.662;8.408;2023-05-10T12:38:38;100340.59;;;21.57;45.79
69173;BME280;56280;49.662;8.408;2023-05-10T12:41:08;100346.13;;;21.13;46.20
69173;BME280;56280;49.662;8.408;2023-05-10T12:43:34;100352.88;;;20.74;47.06
69173;BME280;56280;49.662;8.408;2023-05-10T12:46:11;100359.81;;;20.84;47.00
69173;BME280;56280;49.662;8.408;2023-05-10T12:48:38;100319.75;;;20.87;46.80
69173;BME280;56280;49.662;8.408;2023-05-10T12:51:05;100344.38;;;21.34;46.35
69173;BME280;56280;49.662;8.408;2023-05-10T12:53:31;100357.09;;;21.40;45.75
69173;BME280;56280;49.662;8.408;2023-05-10T12:55:56;100346.44;;;21.60;46.64
69173;BME280;56280;49.662;8.408;2023-05-10T12:58:22;100344.28;;;21.14;45.90
69173;BME280;56280;49.662;8.408;2023-05-10T13:00:47;100340.28;;;21.38;45.52
69173;BME280;56280;49.662;8.408;2023-05-10T13:03:12;100339.41;;;21.38;45.06
69173;BME280;56280;49.662;8.408;2023-05-10T13:05:38;100345.47;;;21.40;45.11
69173;BME280;56280;49.662;8.408;2023-05-10T13:08:03;100346.34;;;21.19;45.44
69173;BME280;56280;49.662;8.408;2023-05-10T13:10:30;100346.28;;;21.05;46.13
69173;BME280;56280;49.662;8.408;2023-05-10T13:12:56;100348.88;;;21.48;44.67
69173;BME280;56280;49.662;8.408;2023-05-10T13:15:21;100351.06;;;21.38;45.83